Flight Track Log - Related Links

Times and Time Zones

All times are in EDT time to prevent confusion due to time zone crossing. See the N152SR flight status page for this flight to view local times or setup timezone preferences in your user account.

Time Position Orientation Groundspeed Altitude Reporting Facility
EDT Latitude Longitude Course Direction KTS MPH feet Rate Location/Type
Fri 04:23:00 PM 41.0391 -72.4077 264° West  Level Estimated
Fri 04:24:00 PM 41.0343 -72.4682 264° West  Level Estimated
Fri 04:25:00 PM 41.0295 -72.5286 264° West  Level Estimated
Fri 04:26:00 PM 41.0246 -72.5891 264° West  Level Estimated
Fri 04:27:00 PM 41.0197 -72.6496 264° West  Level Estimated
Fri 04:27:43 PM 41.1367 -71.9908 313° West 134 154 3,000  Level Boston Center
Fri 04:28:00 PM 41.0148 -72.7100 264° West  Level Estimated
Fri 04:28:43 PM 41.1681 -72.0319 315° West 161 185 3,900  Level Boston Center
Fri 04:29:00 PM 41.0098 -72.7705 264° West  Level Estimated
Fri 04:29:50 PM 41.2097 -72.0675 327° Northwest 151 174 4,700  Level Boston Center
Fri 04:30:00 PM 41.0048 -72.8309 264° West  Level Estimated
Fri 04:30:51 PM 41.2411 -72.1006 322° Northwest 142 163 5,600  Level Boston Center
Fri 04:31:00 PM 40.9998 -72.8913 264° West  Level Estimated
Fri 04:31:52 PM 41.2725 -72.1364 319° Northwest 150 173 6,100  Level Boston Center
Fri 04:32:53 PM 41.3122 -72.1831 319° Northwest 190 219 6,000 -49 Descending Boston Center
Fri 04:33:54 PM 41.3497 -72.2272 319° Northwest 182 209 6,000 50 Level Boston Center
Fri 04:34:53 PM 41.3875 -72.2658 323° Northwest 180 207 6,100  Climbing Boston Center
Fri 04:35:54 PM 41.4292 -72.3128 320° Northwest 198 228 6,000 -49 Descending Boston Center
Fri 04:36:55 PM 41.4708 -72.3597 320° Northwest 184 212 6,000 49 Level Boston Center
Fri 04:37:56 PM 41.5083 -72.4014 320° Northwest 176 203 6,100  Climbing Boston Center
Fri 04:39:09 PM 41.5272 -72.4650 292° West 181 208 6,000 -28 Descending Boston Center
Fri 04:41:27 PM 41.5000 -72.6167 257° West 185 213 6,000  Level New TRACON
Fri 04:42:28 PM 41.4833 -72.6833 252° West 190 219 6,000  Level New TRACON
Fri 04:43:27 PM 41.4667 -72.7500 252° West 188 216 6,000  Level New TRACON
Fri 04:44:27 PM 41.4500 -72.8167 252° West 189 217 6,000  Level New TRACON
Fri 04:45:27 PM 41.4333 -72.8833 252° West 190 219 6,000  Level New TRACON
Fri 04:46:27 PM 41.4167 -72.9500 252° West 193 222 6,000  Level New TRACON
Fri 04:47:28 PM 41.4000 -73.0167 252° West 191 220 6,000  Level New TRACON
Fri 04:48:27 PM 41.3833 -73.0833 252° West 193 222 6,000  Level New TRACON
Fri 04:49:22 PM 41.3833 -73.1500 270° West 196 226 6,000  Level New TRACON
Fri 04:50:27 PM 41.3667 -73.2167 252° West 191 220 6,000  Level New TRACON
Fri 04:51:22 PM 41.3500 -73.2833 252° West 192 221 6,000  Level New TRACON
Fri 04:52:27 PM 41.3333 -73.3667 255° West 194 223 6,000  Level New TRACON
Fri 04:53:27 PM 41.3167 -73.4333 252° West 190 219 6,000 -200 Level New TRACON
Fri 04:54:27 PM 41.3000 -73.5000 252° West 198 228 5,600 -496 Descending New TRACON
Fri 04:55:28 PM 41.2833 -73.5667 252° West 207 238 5,000 -300 Descending New TRACON
Fri 04:56:27 PM 41.2667 -73.6333 252° West 194 223 5,000  Level New TRACON
Fri 04:57:27 PM 41.2667 -73.7000 270° West 188 216 5,000  Level New TRACON
Fri 04:58:27 PM 41.2667 -73.7833 270° West 190 219 5,000  Level New TRACON
Fri 04:59:22 PM 41.2500 -73.8333 246° West 190 219 5,000  Level New TRACON
Fri 05:00:28 PM 41.2500 -73.9167 270° West 189 217 5,000  Level New TRACON
Fri 05:01:27 PM 41.2333 -73.9833 252° West 192 221 5,000 -50 Level New TRACON
Fri 05:02:27 PM 41.2167 -74.0500 252° West 192 221 4,900 -446 Descending New TRACON
Fri 05:03:28 PM 41.2000 -74.1167 252° West 215 247 4,100 -298 Descending New TRACON
Fri 05:05:28 PM 41.1167 -74.2167 222° Southwest 192 221 4,000 -33 Descending New TRACON
Fri 05:06:28 PM 41.0833 -74.2667 229° Southwest 186 214 4,000 -33 Level New TRACON
Fri 05:08:28 PM 41.0000 -74.3500 217° Southwest 188 216 3,900 -133 Descending New TRACON
Fri 05:09:28 PM 40.9500 -74.3833 207° Southwest 196 226 3,600 -450 Descending New TRACON
Fri 05:10:28 PM 40.9000 -74.4167 207° Southwest 205 236 3,000 -700 Descending New TRACON
Fri 05:11:28 PM 40.8500 -74.4333 194° South 194 223 2,200 -500 Descending New TRACON
Fri 05:12:28 PM 40.8000 -74.4500 194° South 174 200 2,000 -100 Descending New TRACON
Fri 05:13:28 PM 40.7667 -74.4333 159° South 155 178 2,000  Level New TRACON
Fri 05:15:28 PM 40.7667 -74.3667 90° East 125 144 2,000  Level New TRACON
Fri 05:16:28 PM 40.7833 -74.3500 37° Northeast 112 129 2,000 -300 Level New TRACON
Fri 05:17:28 PM 40.8167 -74.3333 21° North 105 121 1,400 -500 Descending New TRACON
Fri 05:18:28 PM 40.8333 -74.3167 37° Northeast 105 121 1,000 -400 Descending New TRACON
Fri 05:20:00 PM 40.8667 -74.2667 37° Northeast  Level FlightAware
Fri 05:27:00 PM 40.8752 -74.2814 37° Northeast  Level Estimated
Fri 05:28:00 PM 40.8752 -74.2814 37° Northeast  Level Estimated
Fri 05:29:00 PM 40.8752 -74.2814 37° Northeast  Level Estimated

Login

Don't have an account? Register now (free) for customized features, flight alerts, and more!